sensor_id;sensor_type;location;lat;lon;timestamp;pressure;altitude;pressure_sealevel;temperature;humidity
78485;BME280;67773;50.806;8.776;2023-04-15T00:00:32;98809.25;;;5.03;75.65
78485;BME280;67773;50.806;8.776;2023-04-15T00:02:58;98810.34;;;4.98;75.15
78485;BME280;67773;50.806;8.776;2023-04-15T00:05:24;98799.75;;;4.99;75.63
78485;BME280;67773;50.806;8.776;2023-04-15T00:07:49;98801.59;;;4.97;75.36
78485;BME280;67773;50.806;8.776;2023-04-15T00:10:15;98807.06;;;4.92;75.33
78485;BME280;67773;50.806;8.776;2023-04-15T00:12:40;98799.81;;;4.98;74.84
78485;BME280;67773;50.806;8.776;2023-04-15T00:15:07;98805.34;;;4.91;75.35
78485;BME280;67773;50.806;8.776;2023-04-15T00:17:33;98805.34;;;4.91;75.97
78485;BME280;67773;50.806;8.776;2023-04-15T00:19:59;98796.66;;;4.89;75.38
78485;BME280;67773;50.806;8.776;2023-04-15T00:22:25;98800.28;;;4.87;75.98
78485;BME280;67773;50.806;8.776;2023-04-15T00:24:52;98797.06;;;4.80;75.58
78485;BME280;67773;50.806;8.776;2023-04-15T00:27:17;98794.53;;;4.77;76.16
78485;BME280;67773;50.806;8.776;2023-04-15T00:29:43;98792.19;;;4.71;76.31
78485;BME280;67773;50.806;8.776;2023-04-15T00:32:08;98793.28;;;4.66;76.37
78485;BME280;67773;50.806;8.776;2023-04-15T00:34:34;98790.84;;;4.61;76.61
78485;BME280;67773;50.806;8.776;2023-04-15T00:36:59;98785.47;;;4.64;76.71
78485;BME280;67773;50.806;8.776;2023-04-15T00:39:25;98790.00;;;4.60;77.08
78485;BME280;67773;50.806;8.776;2023-04-15T00:41:50;98786.69;;;4.55;76.53
78485;BME280;67773;50.806;8.776;2023-04-15T00:44:15;98784.91;;;4.56;76.15
78485;BME280;67773;50.806;8.776;2023-04-15T00:46:44;98779.78;;;4.53;76.89
78485;BME280;67773;50.806;8.776;2023-04-15T00:49:09;98787.53;;;4.56;76.60
78485;BME280;67773;50.806;8.776;2023-04-15T00:51:35;98786.81;;;4.52;77.55
78485;BME280;67773;50.806;8.776;2023-04-15T00:54:04;98779.09;;;4.48;77.02
78485;BME280;67773;50.806;8.776;2023-04-15T00:56:34;98786.19;;;4.46;76.97
78485;BME280;67773;50.806;8.776;2023-04-15T00:59:00;98789.88;;;4.42;77.31
78485;BME280;67773;50.806;8.776;2023-04-15T01:01:26;98783.09;;;4.36;77.79
78485;BME280;67773;50.806;8.776;2023-04-15T01:03:53;98793.59;;;4.36;78.45
78485;BME280;67773;50.806;8.776;2023-04-15T01:06:19;98788.53;;;4.31;77.28
78485;BME280;67773;50.806;8.776;2023-04-15T01:08:45;98787.19;;;4.21;77.29
78485;BME280;67773;50.806;8.776;2023-04-15T01:11:11;98784.44;;;4.24;77.77
78485;BME280;67773;50.806;8.776;2023-04-15T01:13:37;98782.06;;;4.18;78.13
78485;BME280;67773;50.806;8.776;2023-04-15T01:16:02;98780.47;;;4.14;78.46
78485;BME280;67773;50.806;8.776;2023-04-15T01:18:29;98782.16;;;4.15;78.63
78485;BME280;67773;50.806;8.776;2023-04-15T01:20:55;98780.47;;;4.14;77.88
78485;BME280;67773;50.806;8.776;2023-04-15T01:23:21;98778.94;;;4.09;78.12
78485;BME280;67773;50.806;8.776;2023-04-15T01:25:50;98779.00;;;4.07;78.26
78485;BME280;67773;50.806;8.776;2023-04-15T01:28:17;98782.59;;;4.04;77.98
78485;BME280;67773;50.806;8.776;2023-04-15T01:30:43;98791.22;;;4.08;78.26
78485;BME280;67773;50.806;8.776;2023-04-15T01:33:08;98787.91;;;4.03;78.18
78485;BME280;67773;50.806;8.776;2023-04-15T01:35:34;98777.53;;;4.00;78.48
78485;BME280;67773;50.806;8.776;2023-04-15T01:38:04;98779.47;;;3.95;78.60
78485;BME280;67773;50.806;8.776;2023-04-15T01:40:30;98766.41;;;3.93;78.32
78485;BME280;67773;50.806;8.776;2023-04-15T01:42:56;98784.56;;;3.99;78.74
78485;BME280;67773;50.806;8.776;2023-04-15T01:45:21;98783.69;;;3.99;78.82
78485;BME280;67773;50.806;8.776;2023-04-15T01:47:47;98775.06;;;3.95;78.28
78485;BME280;67773;50.806;8.776;2023-04-15T01:50:13;98772.50;;;3.94;78.57
78485;BME280;67773;50.806;8.776;2023-04-15T01:52:39;98769.72;;;3.98;78.51
78485;BME280;67773;50.806;8.776;2023-04-15T01:55:05;98772.41;;;3.97;79.09
78485;BME280;67773;50.806;8.776;2023-04-15T01:57:32;98767.16;;;3.97;78.48
78485;BME280;67773;50.806;8.776;2023-04-15T01:59:57;98776.09;;;3.91;78.29
78485;BME280;67773;50.806;8.776;2023-04-15T02:02:22;98771.91;;;3.87;78.53
78485;BME280;67773;50.806;8.776;2023-04-15T02:04:47;98771.03;;;3.87;78.35
78485;BME280;67773;50.806;8.776;2023-04-15T02:07:13;98779.06;;;3.82;79.26
78485;BME280;67773;50.806;8.776;2023-04-15T02:09:38;98789.19;;;3.69;79.49
78485;BME280;67773;50.806;8.776;2023-04-15T02:12:04;98777.09;;;3.65;79.07
78485;BME280;67773;50.806;8.776;2023-04-15T02:14:29;98787.53;;;3.67;79.96
78485;BME280;67773;50.806;8.776;2023-04-15T02:16:55;98780.69;;;3.63;79.13
78485;BME280;67773;50.806;8.776;2023-04-15T02:19:21;98779.88;;;3.61;79.59
78485;BME280;67773;50.806;8.776;2023-04-15T02:21:46;98773.78;;;3.60;80.09
78485;BME280;67773;50.806;8.776;2023-04-15T02:24:11;98782.50;;;3.61;79.27
78485;BME280;67773;50.806;8.776;2023-04-15T02:26:36;98789.84;;;3.51;79.74
78485;BME280;67773;50.806;8.776;2023-04-15T02:29:02;98778.50;;;3.51;79.53
78485;BME280;67773;50.806;8.776;2023-04-15T02:31:28;98784.78;;;3.46;80.13
78485;BME280;67773;50.806;8.776;2023-04-15T02:33:53;98778.69;;;3.46;79.37
78485;BME280;67773;50.806;8.776;2023-04-15T02:36:18;98782.09;;;3.48;79.38
78485;BME280;67773;50.806;8.776;2023-04-15T02:38:45;98783.94;;;3.46;80.12
78485;BME280;67773;50.806;8.776;2023-04-15T02:41:11;98788.28;;;3.47;80.33
78485;BME280;67773;50.806;8.776;2023-04-15T02:43:36;98770.06;;;3.42;80.48
78485;BME280;67773;50.806;8.776;2023-04-15T02:46:04;98783.81;;;3.49;80.51
78485;BME280;67773;50.806;8.776;2023-04-15T02:48:29;98775.63;;;3.33;79.81
78485;BME280;67773;50.806;8.776;2023-04-15T02:51:20;98784.78;;;3.46;81.02
78485;BME280;67773;50.806;8.776;2023-04-15T02:53:47;98781.25;;;3.47;79.95
78485;BME280;67773;50.806;8.776;2023-04-15T02:56:13;98780.66;;;3.39;80.04
78485;BME280;67773;50.806;8.776;2023-04-15T02:58:41;98779.22;;;3.31;80.14
78485;BME280;67773;50.806;8.776;2023-04-15T03:01:07;98780.25;;;3.27;80.35
78485;BME280;67773;50.806;8.776;2023-04-15T03:03:33;98783.00;;;3.24;81.14
78485;BME280;67773;50.806;8.776;2023-04-15T03:05:58;98781.31;;;3.21;80.71
78485;BME280;67773;50.806;8.776;2023-04-15T03:08:24;98783.16;;;3.19;80.95
78485;BME280;67773;50.806;8.776;2023-04-15T03:10:49;98776.72;;;3.28;80.82
78485;BME280;67773;50.806;8.776;2023-04-15T03:13:17;98777.38;;;3.34;80.47
78485;BME280;67773;50.806;8.776;2023-04-15T03:15:42;98780.03;;;3.33;80.73
78485;BME280;67773;50.806;8.776;2023-04-15T03:18:07;98776.53;;;3.34;80.94
78485;BME280;67773;50.806;8.776;2023-04-15T03:20:33;98781.00;;;3.30;81.24
78485;BME280;67773;50.806;8.776;2023-04-15T03:22:59;98772.44;;;3.25;80.34
78485;BME280;67773;50.806;8.776;2023-04-15T03:25:25;98757.09;;;3.14;80.47
78485;BME280;67773;50.806;8.776;2023-04-15T03:27:50;98774.84;;;3.31;80.36
78485;BME280;67773;50.806;8.776;2023-04-15T03:30:16;98772.41;;;3.27;80.45
78485;BME280;67773;50.806;8.776;2023-04-15T03:32:41;98775.03;;;3.27;80.25
78485;BME280;67773;50.806;8.776;2023-04-15T03:35:06;98775.13;;;3.24;80.74
78485;BME280;67773;50.806;8.776;2023-04-15T03:37:32;98751.16;;;3.09;80.43
78485;BME280;67773;50.806;8.776;2023-04-15T03:39:57;98767.16;;;3.27;80.45
78485;BME280;67773;50.806;8.776;2023-04-15T03:42:22;98767.34;;;3.21;80.41
78485;BME280;67773;50.806;8.776;2023-04-15T03:44:48;98765.88;;;3.13;80.63
78485;BME280;67773;50.806;8.776;2023-04-15T03:47:13;98764.97;;;3.14;81.21
78485;BME280;67773;50.806;8.776;2023-04-15T03:49:38;98762.22;;;3.17;81.05
78485;BME280;67773;50.806;8.776;2023-04-15T03:52:04;98761.09;;;3.25;80.96
78485;BME280;67773;50.806;8.776;2023-04-15T03:54:29;98766.28;;;3.26;80.49
78485;BME280;67773;50.806;8.776;2023-04-15T03:56:55;98764.53;;;3.27;80.54
78485;BME280;67773;50.806;8.776;2023-04-15T03:59:20;98763.63;;;3.28;81.02
78485;BME280;67773;50.806;8.776;2023-04-15T04:01:46;98768.84;;;3.28;80.28
78485;BME280;67773;50.806;8.776;2023-04-15T04:04:11;98766.25;;;3.28;80.03
78485;BME280;67773;50.806;8.776;2023-04-15T04:06:36;98775.47;;;3.38;80.44
78485;BME280;67773;50.806;8.776;2023-04-15T04:09:02;98776.59;;;3.31;80.24
78485;BME280;67773;50.806;8.776;2023-04-15T04:11:27;98772.88;;;3.38;80.07
78485;BME280;67773;50.806;8.776;2023-04-15T04:13:52;98771.31;;;3.32;80.26
78485;BME280;67773;50.806;8.776;2023-04-15T04:16:18;98770.38;;;3.33;80.99
78485;BME280;67773;50.806;8.776;2023-04-15T04:18:43;98769.44;;;3.36;80.54
78485;BME280;67773;50.806;8.776;2023-04-15T04:21:09;98773.19;;;3.29;80.20
78485;BME280;67773;50.806;8.776;2023-04-15T04:23:34;98761.09;;;3.25;80.29
78485;BME280;67773;50.806;8.776;2023-04-15T04:25:59;98773.94;;;3.32;79.99
78485;BME280;67773;50.806;8.776;2023-04-15T04:28:25;98774.56;;;3.39;80.96
78485;BME280;67773;50.806;8.776;2023-04-15T04:30:51;98766.13;;;3.31;80.67
78485;BME280;67773;50.806;8.776;2023-04-15T04:33:16;98778.09;;;3.38;80.57
78485;BME280;67773;50.806;8.776;2023-04-15T04:35:41;98779.59;;;3.45;80.31
78485;BME280;67773;50.806;8.776;2023-04-15T04:38:07;98781.38;;;3.44;80.11
78485;BME280;67773;50.806;8.776;2023-04-15T04:40:32;98770.25;;;3.38;80.75
78485;BME280;67773;50.806;8.776;2023-04-15T04:42:58;98773.72;;;3.38;79.93
78485;BME280;67773;50.806;8.776;2023-04-15T04:45:23;98783.03;;;3.47;80.25
78485;BME280;67773;50.806;8.776;2023-04-15T04:47:48;98785.13;;;3.61;79.36
78485;BME280;67773;50.806;8.776;2023-04-15T04:50:13;98784.34;;;3.59;79.78
78485;BME280;67773;50.806;8.776;2023-04-15T04:52:39;98782.91;;;3.50;80.28
78485;BME280;67773;50.806;8.776;2023-04-15T04:55:04;98781.00;;;3.54;80.39
78485;BME280;67773;50.806;8.776;2023-04-15T04:57:30;98786.03;;;3.60;79.47
78485;BME280;67773;50.806;8.776;2023-04-15T04:59:55;98791.03;;;3.67;79.41
78485;BME280;67773;50.806;8.776;2023-04-15T05:02:21;98790.91;;;3.70;79.77
78485;BME280;67773;50.806;8.776;2023-04-15T05:04:46;98790.22;;;3.89;79.37
78485;BME280;67773;50.806;8.776;2023-04-15T05:07:12;98786.53;;;3.93;79.17
78485;BME280;67773;50.806;8.776;2023-04-15T05:09:37;98789.03;;;3.96;79.30
78485;BME280;67773;50.806;8.776;2023-04-15T05:12:03;98796.69;;;4.02;78.96
78485;BME280;67773;50.806;8.776;2023-04-15T05:14:29;98796.28;;;4.13;78.00
78485;BME280;67773;50.806;8.776;2023-04-15T05:16:54;98801.31;;;4.19;77.55
78485;BME280;67773;50.806;8.776;2023-04-15T05:19:20;98802.75;;;4.26;78.47
78485;BME280;67773;50.806;8.776;2023-04-15T05:21:45;98802.28;;;4.38;77.46
78485;BME280;67773;50.806;8.776;2023-04-15T05:24:10;98815.78;;;4.51;77.40
78485;BME280;67773;50.806;8.776;2023-04-15T05:26:36;98808.41;;;4.60;77.47
78485;BME280;67773;50.806;8.776;2023-04-15T05:29:01;98805.50;;;4.45;77.52
78485;BME280;67773;50.806;8.776;2023-04-15T05:31:26;98795.75;;;4.48;78.04
78485;BME280;67773;50.806;8.776;2023-04-15T05:33:52;98808.91;;;4.69;76.42
78485;BME280;67773;50.806;8.776;2023-04-15T05:36:17;98818.34;;;4.74;76.49
78485;BME280;67773;50.806;8.776;2023-04-15T05:38:43;98817.69;;;4.89;75.69
78485;BME280;67773;50.806;8.776;2023-04-15T05:41:08;98810.53;;;4.93;75.86
78485;BME280;67773;50.806;8.776;2023-04-15T05:43:33;98822.69;;;4.96;75.31
78485;BME280;67773;50.806;8.776;2023-04-15T05:45:59;98813.81;;;4.98;74.75
78485;BME280;67773;50.806;8.776;2023-04-15T05:48:24;98819.38;;;5.12;74.73
78485;BME280;67773;50.806;8.776;2023-04-15T05:50:49;98817.78;;;5.08;74.81
78485;BME280;67773;50.806;8.776;2023-04-15T05:53:15;98814.91;;;5.14;74.74
78485;BME280;67773;50.806;8.776;2023-04-15T05:55:40;98811.03;;;5.23;75.02
78485;BME280;67773;50.806;8.776;2023-04-15T05:58:05;98812.53;;;5.29;74.81
78485;BME280;67773;50.806;8.776;2023-04-15T06:00:31;98820.94;;;5.37;74.08
78485;BME280;67773;50.806;8.776;2023-04-15T06:02:57;98817.78;;;5.49;73.91
78485;BME280;67773;50.806;8.776;2023-04-15T06:05:23;98814.53;;;5.63;72.73
78485;BME280;67773;50.806;8.776;2023-04-15T06:07:48;98816.03;;;5.68;72.99
78485;BME280;67773;50.806;8.776;2023-04-15T06:10:14;98803.56;;;5.53;73.39
78485;BME280;67773;50.806;8.776;2023-04-15T06:12:40;98812.53;;;5.68;72.81
78485;BME280;67773;50.806;8.776;2023-04-15T06:15:05;98827.41;;;5.69;73.96
78485;BME280;67773;50.806;8.776;2023-04-15T06:17:31;98813.81;;;5.59;73.45
78485;BME280;67773;50.806;8.776;2023-04-15T06:19:56;98820.38;;;5.69;72.96
78485;BME280;67773;50.806;8.776;2023-04-15T06:22:23;98820.53;;;5.66;73.54
78485;BME280;67773;50.806;8.776;2023-04-15T06:24:49;98827.63;;;5.64;73.39
78485;BME280;67773;50.806;8.776;2023-04-15T06:27:15;98825.38;;;5.75;73.72
78485;BME280;67773;50.806;8.776;2023-04-15T06:29:41;98828.72;;;5.79;73.61
78485;BME280;67773;50.806;8.776;2023-04-15T06:32:06;98829.50;;;5.81;73.68
78485;BME280;67773;50.806;8.776;2023-04-15T06:34:32;98832.53;;;5.92;72.52
78485;BME280;67773;50.806;8.776;2023-04-15T06:36:57;98833.81;;;6.02;72.76
78485;BME280;67773;50.806;8.776;2023-04-15T06:39:23;98832.47;;;6.13;72.43
78485;BME280;67773;50.806;8.776;2023-04-15T06:41:48;98834.41;;;6.09;72.16
78485;BME280;67773;50.806;8.776;2023-04-15T06:44:13;98836.81;;;6.14;71.61
78485;BME280;67773;50.806;8.776;2023-04-15T06:46:39;98839.31;;;6.17;72.06
78485;BME280;67773;50.806;8.776;2023-04-15T06:49:04;98842.31;;;6.28;71.71
78485;BME280;67773;50.806;8.776;2023-04-15T06:51:29;98834.25;;;6.50;70.66
78485;BME280;67773;50.806;8.776;2023-04-15T06:53:55;98837.22;;;6.61;70.08
78485;BME280;67773;50.806;8.776;2023-04-15T06:56:21;98843.53;;;6.76;69.69
78485;BME280;67773;50.806;8.776;2023-04-15T06:58:47;98841.69;;;6.95;69.11
78485;BME280;67773;50.806;8.776;2023-04-15T07:01:12;98846.69;;;7.01;68.53
78485;BME280;67773;50.806;8.776;2023-04-15T07:03:38;98845.38;;;7.10;68.74
78485;BME280;67773;50.806;8.776;2023-04-15T07:06:03;98839.75;;;7.16;69.11
78485;BME280;67773;50.806;8.776;2023-04-15T07:08:30;98843.91;;;7.21;67.91
78485;BME280;67773;50.806;8.776;2023-04-15T07:10:56;98835.91;;;7.23;67.85
78485;BME280;67773;50.806;8.776;2023-04-15T07:13:22;98843.44;;;7.31;68.32
78485;BME280;67773;50.806;8.776;2023-04-15T07:15:47;98848.72;;;7.31;67.95
78485;BME280;67773;50.806;8.776;2023-04-15T07:18:12;98827.97;;;7.23;67.02
78485;BME280;67773;50.806;8.776;2023-04-15T07:20:38;98845.53;;;7.41;67.26
78485;BME280;67773;50.806;8.776;2023-04-15T07:23:04;98849.53;;;7.48;67.28
78485;BME280;67773;50.806;8.776;2023-04-15T07:25:29;98842.25;;;7.53;67.07
78485;BME280;67773;50.806;8.776;2023-04-15T07:27:54;98837.81;;;7.54;66.85
78485;BME280;67773;50.806;8.776;2023-04-15T07:30:20;98841.69;;;7.64;67.14
78485;BME280;67773;50.806;8.776;2023-04-15T07:32:45;98839.81;;;7.66;67.81
78485;BME280;67773;50.806;8.776;2023-04-15T07:35:11;98842.44;;;7.84;66.19
78485;BME280;67773;50.806;8.776;2023-04-15T07:37:36;98847.38;;;7.90;66.09
78485;BME280;67773;50.806;8.776;2023-04-15T07:40:02;98839.56;;;8.04;66.00
78485;BME280;67773;50.806;8.776;2023-04-15T07:42:31;98834.69;;;8.12;65.56
78485;BME280;67773;50.806;8.776;2023-04-15T07:44:56;98842.84;;;8.25;65.22
78485;BME280;67773;50.806;8.776;2023-04-15T07:47:22;98844.97;;;8.18;65.44
78485;BME280;67773;50.806;8.776;2023-04-15T07:49:47;98849.06;;;8.24;65.23
78485;BME280;67773;50.806;8.776;2023-04-15T07:52:13;98850.69;;;8.26;65.59
78485;BME280;67773;50.806;8.776;2023-04-15T07:54:38;98843.03;;;8.37;65.47
78485;BME280;67773;50.806;8.776;2023-04-15T07:57:04;98844.56;;;8.42;65.98
78485;BME280;67773;50.806;8.776;2023-04-15T07:59:29;98843.75;;;8.57;64.57
78485;BME280;67773;50.806;8.776;2023-04-15T08:01:55;98839.97;;;8.61;63.71
78485;BME280;67773;50.806;8.776;2023-04-15T08:04:20;98837.75;;;8.69;64.92
78485;BME280;67773;50.806;8.776;2023-04-15T08:06:46;98839.69;;;8.97;64.29
78485;BME280;67773;50.806;8.776;2023-04-15T08:09:13;98833.03;;;9.20;62.88
78485;BME280;67773;50.806;8.776;2023-04-15T08:11:39;98842.78;;;9.64;61.93
78485;BME280;67773;50.806;8.776;2023-04-15T08:14:05;98833.50;;;9.99;60.60
78485;BME280;67773;50.806;8.776;2023-04-15T08:16:31;98843.56;;;10.37;59.91
78485;BME280;67773;50.806;8.776;2023-04-15T08:18:56;98842.28;;;10.57;59.74
78485;BME280;67773;50.806;8.776;2023-04-15T08:21:22;98826.50;;;10.41;59.17
78485;BME280;67773;50.806;8.776;2023-04-15T08:23:50;98841.94;;;10.49;59.76
78485;BME280;67773;50.806;8.776;2023-04-15T08:26:16;98843.09;;;10.30;59.93
78485;BME280;67773;50.806;8.776;2023-04-15T08:28:43;98840.53;;;10.15;60.19
78485;BME280;67773;50.806;8.776;2023-04-15T08:31:08;98828.78;;;10.04;61.73
78485;BME280;67773;50.806;8.776;2023-04-15T08:33:34;98832.94;;;10.08;62.03
78485;BME280;67773;50.806;8.776;2023-04-15T08:35:59;98837.28;;;10.09;61.72
78485;BME280;67773;50.806;8.776;2023-04-15T08:38:24;98845.66;;;10.03;63.35
78485;BME280;67773;50.806;8.776;2023-04-15T08:40:50;98840.72;;;9.97;63.92
78485;BME280;67773;50.806;8.776;2023-04-15T08:43:27;98840.72;;;9.83;65.00
78485;BME280;67773;50.806;8.776;2023-04-15T08:45:54;98842.66;;;9.51;66.43
78485;BME280;67773;50.806;8.776;2023-04-15T08:48:20;98847.75;;;9.40;68.51
78485;BME280;67773;50.806;8.776;2023-04-15T08:50:47;98850.72;;;9.49;68.65
78485;BME280;67773;50.806;8.776;2023-04-15T08:53:13;98842.78;;;9.49;66.46
78485;BME280;67773;50.806;8.776;2023-04-15T08:55:44;98838.41;;;9.48;67.97
78485;BME280;67773;50.806;8.776;2023-04-15T08:58:11;98836.34;;;9.53;68.25
78485;BME280;67773;50.806;8.776;2023-04-15T09:00:38;98838.78;;;9.57;68.04
78485;BME280;67773;50.806;8.776;2023-04-15T09:03:04;98832.00;;;9.67;68.46
78485;BME280;67773;50.806;8.776;2023-04-15T09:05:40;98843.19;;;9.72;67.06
78485;BME280;67773;50.806;8.776;2023-04-15T09:08:05;98837.38;;;9.65;67.63
78485;BME280;67773;50.806;8.776;2023-04-15T09:10:32;98842.50;;;9.68;67.72
78485;BME280;67773;50.806;8.776;2023-04-15T09:12:58;98841.47;;;9.71;67.34
78485;BME280;67773;50.806;8.776;2023-04-15T09:15:26;98852.88;;;9.57;67.99
78485;BME280;67773;50.806;8.776;2023-04-15T09:17:53;98857.88;;;9.47;67.90
78485;BME280;67773;50.806;8.776;2023-04-15T09:20:19;98852.97;;;9.41;68.73
78485;BME280;67773;50.806;8.776;2023-04-15T09:22:46;98860.84;;;9.27;69.28
78485;BME280;67773;50.806;8.776;2023-04-15T09:27:51;98856.28;;;9.15;69.38
78485;BME280;67773;50.806;8.776;2023-04-15T09:30:16;98868.19;;;9.08;70.03
78485;BME280;67773;50.806;8.776;2023-04-15T09:32:49;98859.63;;;9.03;70.76
78485;BME280;67773;50.806;8.776;2023-04-15T09:35:16;98867.00;;;8.98;71.40
78485;BME280;67773;50.806;8.776;2023-04-15T09:37:41;98861.09;;;9.08;71.75
78485;BME280;67773;50.806;8.776;2023-04-15T09:40:07;98850.97;;;9.15;71.79
78485;BME280;67773;50.806;8.776;2023-04-15T09:42:34;98880.25;;;9.28;71.79
78485;BME280;67773;50.806;8.776;2023-04-15T09:45:12;98881.19;;;9.26;71.66
78485;BME280;67773;50.806;8.776;2023-04-15T09:47:37;98885.28;;;9.32;72.79
78485;BME280;67773;50.806;8.776;2023-04-15T09:50:03;98879.31;;;9.29;72.63
78485;BME280;67773;50.806;8.776;2023-04-15T09:52:29;98886.94;;;9.19;70.41
78485;BME280;67773;50.806;8.776;2023-04-15T09:54:56;98894.03;;;9.18;71.81
78485;BME280;67773;50.806;8.776;2023-04-15T09:57:22;98896.16;;;9.12;72.48
78485;BME280;67773;50.806;8.776;2023-04-15T09:59:49;98893.72;;;9.09;73.01
78485;BME280;67773;50.806;8.776;2023-04-15T10:02:14;98891.63;;;9.14;71.36
78485;BME280;67773;50.806;8.776;2023-04-15T10:04:42;98899.56;;;9.14;73.58
78485;BME280;67773;50.806;8.776;2023-04-15T10:07:09;98901.38;;;9.13;73.20
78485;BME280;67773;50.806;8.776;2023-04-15T10:09:37;98895.75;;;9.04;74.17
78485;BME280;67773;50.806;8.776;2023-04-15T10:12:03;98902.94;;;9.02;73.47
78485;BME280;67773;50.806;8.776;2023-04-15T10:14:33;98907.53;;;8.82;73.14
78485;BME280;67773;50.806;8.776;2023-04-15T10:17:01;98916.78;;;8.91;73.05
78485;BME280;67773;50.806;8.776;2023-04-15T10:19:30;98903.88;;;8.69;73.01
78485;BME280;67773;50.806;8.776;2023-04-15T10:21:56;98902.00;;;8.71;73.05
78485;BME280;67773;50.806;8.776;2023-04-15T10:24:24;98907.72;;;8.79;73.41
78485;BME280;67773;50.806;8.776;2023-04-15T10:26:50;98912.00;;;8.82;74.81
78485;BME280;67773;50.806;8.776;2023-04-15T10:29:16;98915.31;;;8.85;74.63
78485;BME280;67773;50.806;8.776;2023-04-15T10:31:42;98913.53;;;9.02;74.73
78485;BME280;67773;50.806;8.776;2023-04-15T10:34:08;98915.03;;;9.06;74.76
78485;BME280;67773;50.806;8.776;2023-04-15T10:36:35;98918.09;;;9.14;75.21
78485;BME280;67773;50.806;8.776;2023-04-15T10:39:00;98916.06;;;9.19;73.70
78485;BME280;67773;50.806;8.776;2023-04-15T10:41:27;98917.41;;;9.26;74.72
78485;BME280;67773;50.806;8.776;2023-04-15T10:43:59;98915.69;;;9.41;74.46
78485;BME280;67773;50.806;8.776;2023-04-15T10:46:38;98924.09;;;9.02;73.94
78485;BME280;67773;50.806;8.776;2023-04-15T10:49:15;98921.19;;;9.06;75.08
78485;BME280;67773;50.806;8.776;2023-04-15T10:51:44;98924.44;;;9.11;75.68
78485;BME280;67773;50.806;8.776;2023-04-15T10:54:30;98935.13;;;9.10;76.68
78485;BME280;67773;50.806;8.776;2023-04-15T10:59:31;98935.03;;;8.95;77.89
78485;BME280;67773;50.806;8.776;2023-04-15T11:02:02;98921.22;;;8.90;78.26
78485;BME280;67773;50.806;8.776;2023-04-15T11:04:54;98938.28;;;8.85;78.80
78485;BME280;67773;50.806;8.776;2023-04-15T11:12:51;98941.88;;;9.00;79.88
78485;BME280;67773;50.806;8.776;2023-04-15T11:15:32;98938.53;;;9.12;79.85
78485;BME280;67773;50.806;8.776;2023-04-15T11:18:12;98939.38;;;9.12;79.36
78485;BME280;67773;50.806;8.776;2023-04-15T11:20:50;98941.41;;;9.23;79.16
78485;BME280;67773;50.806;8.776;2023-04-15T11:23:36;98943.72;;;9.29;78.07
78485;BME280;67773;50.806;8.776;2023-04-15T11:26:04;98954.41;;;9.28;78.78
78485;BME280;67773;50.806;8.776;2023-04-15T11:28:33;98950.22;;;9.23;78.01
78485;BME280;67773;50.806;8.776;2023-04-15T11:31:05;98953.72;;;9.24;78.57
78485;BME280;67773;50.806;8.776;2023-04-15T11:33:31;98950.72;;;9.14;78.22
78485;BME280;67773;50.806;8.776;2023-04-15T11:35:56;98962.00;;;9.02;78.21
78485;BME280;67773;50.806;8.776;2023-04-15T11:38:22;98960.63;;;8.95;79.18
78485;BME280;67773;50.806;8.776;2023-04-15T11:40:49;98965.44;;;8.88;80.19
78485;BME280;67773;50.806;8.776;2023-04-15T11:43:19;98968.69;;;8.78;79.76
78485;BME280;67773;50.806;8.776;2023-04-15T11:45:53;98975.06;;;8.74;80.81
78485;BME280;67773;50.806;8.776;2023-04-15T11:48:21;98966.00;;;8.62;80.36
78485;BME280;67773;50.806;8.776;2023-04-15T11:50:52;98969.59;;;8.61;79.77
78485;BME280;67773;50.806;8.776;2023-04-15T11:53:18;98977.69;;;8.58;81.68
78485;BME280;67773;50.806;8.776;2023-04-15T11:55:48;98980.78;;;8.66;82.30
78485;BME280;67773;50.806;8.776;2023-04-15T11:58:17;98979.66;;;8.70;81.59
78485;BME280;67773;50.806;8.776;2023-04-15T12:00:53;98973.78;;;8.65;80.55
78485;BME280;67773;50.806;8.776;2023-04-15T12:06:20;98983.25;;;8.69;81.57
78485;BME280;67773;50.806;8.776;2023-04-15T12:11:12;98988.38;;;8.56;82.55
78485;BME280;67773;50.806;8.776;2023-04-15T12:13:46;98984.34;;;8.49;82.47
78485;BME280;67773;50.806;8.776;2023-04-15T12:16:11;98980.06;;;8.47;81.36
78485;BME280;67773;50.806;8.776;2023-04-15T12:18:37;98992.75;;;8.40;81.59
78485;BME280;67773;50.806;8.776;2023-04-15T12:21:09;98991.66;;;8.44;83.00
78485;BME280;67773;50.806;8.776;2023-04-15T12:23:48;98999.75;;;8.41;83.04
78485;BME280;67773;50.806;8.776;2023-04-15T12:26:15;98998.56;;;8.47;82.87
78485;BME280;67773;50.806;8.776;2023-04-15T12:28:40;98992.53;;;8.45;81.77
78485;BME280;67773;50.806;8.776;2023-04-15T12:31:10;99008.31;;;8.62;81.54
78485;BME280;67773;50.806;8.776;2023-04-15T12:33:38;99002.59;;;8.54;81.68
78485;BME280;67773;50.806;8.776;2023-04-15T12:36:04;99003.97;;;8.61;82.99
78485;BME280;67773;50.806;8.776;2023-04-15T12:38:30;99004.22;;;8.56;82.77
78485;BME280;67773;50.806;8.776;2023-04-15T12:40:58;99008.41;;;8.60;83.06
78485;BME280;67773;50.806;8.776;2023-04-15T12:43:24;99011.81;;;8.62;83.35
78485;BME280;67773;50.806;8.776;2023-04-15T12:45:49;99025.47;;;8.55;83.44
78485;BME280;67773;50.806;8.776;2023-04-15T12:48:15;99020.50;;;8.49;83.68
78485;BME280;67773;50.806;8.776;2023-04-15T12:50:40;99027.50;;;8.50;83.98
78485;BME280;67773;50.806;8.776;2023-04-15T12:53:05;99032.63;;;8.53;84.36
78485;BME280;67773;50.806;8.776;2023-04-15T12:55:31;99020.69;;;8.61;84.83
78485;BME280;67773;50.806;8.776;2023-04-15T12:57:56;99033.84;;;8.63;84.22
78485;BME280;67773;50.806;8.776;2023-04-15T13:00:22;99039.47;;;8.57;83.97
78485;BME280;67773;50.806;8.776;2023-04-15T13:02:47;99036.53;;;8.46;83.58
78485;BME280;67773;50.806;8.776;2023-04-15T13:05:13;99036.84;;;8.39;83.25
78485;BME280;67773;50.806;8.776;2023-04-15T13:07:39;99039.41;;;8.41;84.66
78485;BME280;67773;50.806;8.776;2023-04-15T13:10:05;99043.53;;;8.47;84.33
78485;BME280;67773;50.806;8.776;2023-04-15T13:12:32;99038.94;;;8.50;84.31
78485;BME280;67773;50.806;8.776;2023-04-15T13:15:00;99040.81;;;8.48;84.59
78485;BME280;67773;50.806;8.776;2023-04-15T13:17:25;99048.81;;;8.47;84.55
78485;BME280;67773;50.806;8.776;2023-04-15T13:19:51;99046.41;;;8.42;85.09
78485;BME280;67773;50.806;8.776;2023-04-15T13:22:16;99038.81;;;8.36;85.67